sensor_id;sensor_type;location;lat;lon;timestamp;pressure;altitude;pressure_sealevel;temperature;humidity
45731;BME280;31440;48.584;13.460;2023-03-16T00:03:03;97260.81;;;-1.36;100.00
45731;BME280;31440;48.584;13.460;2023-03-16T00:06:08;97260.97;;;-1.80;100.00
45731;BME280;31440;48.584;13.460;2023-03-16T00:09:13;97268.03;;;-1.63;100.00
45731;BME280;31440;48.584;13.460;2023-03-16T00:12:18;97237.50;;;-2.13;100.00
45731;BME280;31440;48.584;13.460;2023-03-16T00:15:22;97281.03;;;-2.01;100.00
45731;BME280;31440;48.584;13.460;2023-03-16T00:18:28;97279.28;;;-2.04;100.00
45731;BME280;31440;48.584;13.460;2023-03-16T00:21:33;97276.72;;;-2.05;100.00
45731;BME280;31440;48.584;13.460;2023-03-16T00:24:40;97287.13;;;-1.91;100.00
45731;BME280;31440;48.584;13.460;2023-03-16T00:27:47;97282.94;;;-1.89;100.00
45731;BME280;31440;48.584;13.460;2023-03-16T00:30:52;97281.94;;;-2.44;100.00
45731;BME280;31440;48.584;13.460;2023-03-16T00:34:02;97288.13;;;-2.31;100.00
45731;BME280;31440;48.584;13.460;2023-03-16T00:37:06;97278.44;;;-2.49;100.00
45731;BME280;31440;48.584;13.460;2023-03-16T00:40:11;97273.66;;;-2.32;100.00
45731;BME280;31440;48.584;13.460;2023-03-16T00:43:17;97277.53;;;-2.08;100.00
45731;BME280;31440;48.584;13.460;2023-03-16T00:46:23;97290.59;;;-1.88;100.00
45731;BME280;31440;48.584;13.460;2023-03-16T00:49:29;97283.13;;;-1.77;100.00
45731;BME280;31440;48.584;13.460;2023-03-16T00:52:38;97292.28;;;-2.35;100.00
45731;BME280;31440;48.584;13.460;2023-03-16T00:55:42;97302.81;;;-2.62;100.00
45731;BME280;31440;48.584;13.460;2023-03-16T00:58:47;97299.63;;;-2.52;100.00
45731;BME280;31440;48.584;13.460;2023-03-16T01:01:52;97300.03;;;-2.74;100.00
45731;BME280;31440;48.584;13.460;2023-03-16T01:04:57;97297.16;;;-2.47;100.00
45731;BME280;31440;48.584;13.460;2023-03-16T01:08:04;97259.59;;;-2.59;100.00
45731;BME280;31440;48.584;13.460;2023-03-16T01:11:11;97301.09;;;-2.63;100.00
45731;BME280;31440;48.584;13.460;2023-03-16T01:14:16;97305.88;;;-3.19;100.00
45731;BME280;31440;48.584;13.460;2023-03-16T01:17:20;97284.88;;;-3.10;100.00
45731;BME280;31440;48.584;13.460;2023-03-16T01:20:26;97299.97;;;-2.77;100.00
45731;BME280;31440;48.584;13.460;2023-03-16T01:23:31;97300.34;;;-2.59;100.00
45731;BME280;31440;48.584;13.460;2023-03-16T01:26:36;97295.94;;;-2.22;100.00
45731;BME280;31440;48.584;13.460;2023-03-16T01:29:41;97297.00;;;-2.11;100.00
45731;BME280;31440;48.584;13.460;2023-03-16T01:32:47;97297.56;;;-2.70;100.00
45731;BME280;31440;48.584;13.460;2023-03-16T01:35:59;97291.50;;;-2.76;100.00
45731;BME280;31440;48.584;13.460;2023-03-16T01:39:10;97263.31;;;-2.85;100.00
45731;BME280;31440;48.584;13.460;2023-03-16T01:49:14;97287.25;;;-2.77;100.00
45731;BME280;31440;48.584;13.460;2023-03-16T01:52:27;97288.97;;;-3.17;100.00
45731;BME280;31440;48.584;13.460;2023-03-16T01:55:34;97280.59;;;-2.69;100.00
45731;BME280;31440;48.584;13.460;2023-03-16T01:58:41;97283.91;;;-2.75;100.00
45731;BME280;31440;48.584;13.460;2023-03-16T02:01:47;97275.88;;;-2.94;100.00
45731;BME280;31440;48.584;13.460;2023-03-16T02:05:06;97271.38;;;-2.64;100.00
45731;BME280;31440;48.584;13.460;2023-03-16T02:08:12;97278.03;;;-3.13;100.00
45731;BME280;31440;48.584;13.460;2023-03-16T02:11:17;97286.75;;;-3.39;100.00
45731;BME280;31440;48.584;13.460;2023-03-16T02:14:41;97297.31;;;-3.22;100.00
45731;BME280;31440;48.584;13.460;2023-03-16T02:17:47;97291.59;;;-2.72;100.00
45731;BME280;31440;48.584;13.460;2023-03-16T02:24:15;97273.41;;;-3.30;100.00
45731;BME280;31440;48.584;13.460;2023-03-16T02:27:37;97290.19;;;-3.37;100.00
45731;BME280;31440;48.584;13.460;2023-03-16T02:30:46;97288.19;;;-3.52;100.00
45731;BME280;31440;48.584;13.460;2023-03-16T02:33:51;97293.59;;;-3.36;100.00
45731;BME280;31440;48.584;13.460;2023-03-16T02:36:57;97296.72;;;-3.11;100.00
45731;BME280;31440;48.584;13.460;2023-03-16T02:40:33;97295.38;;;-3.34;100.00
45731;BME280;31440;48.584;13.460;2023-03-16T02:43:48;97299.06;;;-3.20;100.00
45731;BME280;31440;48.584;13.460;2023-03-16T02:47:05;97301.03;;;-3.08;100.00
45731;BME280;31440;48.584;13.460;2023-03-16T02:50:11;97305.81;;;-2.81;100.00
45731;BME280;31440;48.584;13.460;2023-03-16T02:53:16;97311.72;;;-2.84;100.00
45731;BME280;31440;48.584;13.460;2023-03-16T02:56:21;97307.59;;;-2.33;100.00
45731;BME280;31440;48.584;13.460;2023-03-16T02:59:26;97316.91;;;-2.79;100.00
45731;BME280;31440;48.584;13.460;2023-03-16T03:02:31;97313.09;;;-2.57;100.00
45731;BME280;31440;48.584;13.460;2023-03-16T03:05:36;97305.84;;;-2.38;100.00
45731;BME280;31440;48.584;13.460;2023-03-16T03:08:41;97313.00;;;-2.62;100.00
45731;BME280;31440;48.584;13.460;2023-03-16T03:11:46;97315.25;;;-3.16;100.00
45731;BME280;31440;48.584;13.460;2023-03-16T03:14:50;97324.47;;;-3.21;100.00
45731;BME280;31440;48.584;13.460;2023-03-16T03:17:57;97319.16;;;-2.93;100.00
45731;BME280;31440;48.584;13.460;2023-03-16T03:24:10;97315.47;;;-2.66;100.00
45731;BME280;31440;48.584;13.460;2023-03-16T03:27:16;97313.09;;;-2.98;100.00
45731;BME280;31440;48.584;13.460;2023-03-16T03:30:22;97320.53;;;-3.07;100.00
45731;BME280;31440;48.584;13.460;2023-03-16T03:36:34;97320.53;;;-3.09;100.00
45731;BME280;31440;48.584;13.460;2023-03-16T03:39:38;97323.91;;;-3.10;100.00
45731;BME280;31440;48.584;13.460;2023-03-16T03:42:44;97322.81;;;-3.19;100.00
45731;BME280;31440;48.584;13.460;2023-03-16T03:45:48;97323.78;;;-3.14;100.00
45731;BME280;31440;48.584;13.460;2023-03-16T03:48:54;97257.56;;;-3.56;100.00
45731;BME280;31440;48.584;13.460;2023-03-16T03:51:58;97331.81;;;-3.33;100.00
45731;BME280;31440;48.584;13.460;2023-03-16T03:55:05;97335.53;;;-2.80;100.00
45731;BME280;31440;48.584;13.460;2023-03-16T04:01:17;97336.47;;;-2.77;100.00
45731;BME280;31440;48.584;13.460;2023-03-16T04:04:21;97341.28;;;-2.90;100.00
45731;BME280;31440;48.584;13.460;2023-03-16T04:07:26;97339.97;;;-3.11;100.00
45731;BME280;31440;48.584;13.460;2023-03-16T04:10:35;97345.63;;;-2.85;100.00
45731;BME280;31440;48.584;13.460;2023-03-16T04:13:39;97343.06;;;-2.85;100.00
45731;BME280;31440;48.584;13.460;2023-03-16T04:16:45;97339.13;;;-2.72;100.00
45731;BME280;31440;48.584;13.460;2023-03-16T04:19:50;97322.91;;;-3.15;100.00
45731;BME280;31440;48.584;13.460;2023-03-16T04:22:55;97343.19;;;-2.80;100.00
45731;BME280;31440;48.584;13.460;2023-03-16T04:26:02;97340.56;;;-2.83;100.00
45731;BME280;31440;48.584;13.460;2023-03-16T04:29:11;97325.22;;;-3.25;100.00
45731;BME280;31440;48.584;13.460;2023-03-16T04:32:17;97327.75;;;-3.25;100.00
45731;BME280;31440;48.584;13.460;2023-03-16T04:35:22;97323.09;;;-3.06;100.00
45731;BME280;31440;48.584;13.460;2023-03-16T04:38:31;97323.78;;;-3.14;100.00
45731;BME280;31440;48.584;13.460;2023-03-16T04:41:39;97320.00;;;-3.31;100.00
45731;BME280;31440;48.584;13.460;2023-03-16T04:44:56;97324.50;;;-3.20;100.00
45731;BME280;31440;48.584;13.460;2023-03-16T04:51:07;97330.69;;;-3.09;100.00
45731;BME280;31440;48.584;13.460;2023-03-16T04:54:15;97334.50;;;-2.88;100.00
45731;BME280;31440;48.584;13.460;2023-03-16T04:57:20;97339.19;;;-3.07;100.00
45731;BME280;31440;48.584;13.460;2023-03-16T05:00:28;97347.97;;;-2.94;100.00
45731;BME280;31440;48.584;13.460;2023-03-16T05:03:40;97339.19;;;-3.08;100.00
45731;BME280;31440;48.584;13.460;2023-03-16T05:06:45;97358.88;;;-2.99;100.00
45731;BME280;31440;48.584;13.460;2023-03-16T05:09:50;97351.31;;;-2.96;100.00
45731;BME280;31440;48.584;13.460;2023-03-16T05:12:56;97361.06;;;-2.77;100.00
45731;BME280;31440;48.584;13.460;2023-03-16T05:16:00;97344.00;;;-2.81;100.00
45731;BME280;31440;48.584;13.460;2023-03-16T05:22:15;97363.00;;;-3.05;100.00
45731;BME280;31440;48.584;13.460;2023-03-16T05:25:39;97355.88;;;-2.82;100.00
45731;BME280;31440;48.584;13.460;2023-03-16T05:28:46;97356.09;;;-2.73;100.00
45731;BME280;31440;48.584;13.460;2023-03-16T05:31:53;97347.41;;;-2.81;100.00
45731;BME280;31440;48.584;13.460;2023-03-16T05:35:01;97353.16;;;-2.89;100.00
45731;BME280;31440;48.584;13.460;2023-03-16T05:38:06;97346.72;;;-2.74;100.00
45731;BME280;31440;48.584;13.460;2023-03-16T05:44:33;97358.69;;;-3.09;100.00
45731;BME280;31440;48.584;13.460;2023-03-16T05:48:00;97347.03;;;-2.58;100.00
45731;BME280;31440;48.584;13.460;2023-03-16T05:51:06;97335.25;;;-2.52;100.00
45731;BME280;31440;48.584;13.460;2023-03-16T05:54:11;97334.84;;;-2.73;100.00
45731;BME280;31440;48.584;13.460;2023-03-16T05:57:21;97327.13;;;-2.34;100.00
45731;BME280;31440;48.584;13.460;2023-03-16T06:00:28;97339.03;;;-2.77;100.00
45731;BME280;31440;48.584;13.460;2023-03-16T06:03:45;97324.88;;;-2.62;100.00
45731;BME280;31440;48.584;13.460;2023-03-16T06:06:55;97339.91;;;-2.75;100.00
45731;BME280;31440;48.584;13.460;2023-03-16T06:10:04;97342.00;;;-2.55;100.00
45731;BME280;31440;48.584;13.460;2023-03-16T06:13:10;97347.31;;;-2.45;100.00
45731;BME280;31440;48.584;13.460;2023-03-16T06:16:15;97353.66;;;-2.24;100.00
45731;BME280;31440;48.584;13.460;2023-03-16T06:19:20;97345.75;;;-2.38;100.00
45731;BME280;31440;48.584;13.460;2023-03-16T06:22:30;97362.56;;;-2.46;100.00
45731;BME280;31440;48.584;13.460;2023-03-16T06:25:35;97362.13;;;-2.25;100.00
45731;BME280;31440;48.584;13.460;2023-03-16T06:28:44;97363.09;;;-2.19;100.00
45731;BME280;31440;48.584;13.460;2023-03-16T06:34:56;97360.56;;;-2.19;100.00
45731;BME280;31440;48.584;13.460;2023-03-16T06:38:03;97357.22;;;-2.15;100.00
45731;BME280;31440;48.584;13.460;2023-03-16T06:41:26;97361.41;;;-2.18;100.00
45731;BME280;31440;48.584;13.460;2023-03-16T06:44:31;97362.06;;;-1.82;100.00
45731;BME280;31440;48.584;13.460;2023-03-16T06:47:42;97358.91;;;-2.15;100.00
45731;BME280;31440;48.584;13.460;2023-03-16T06:50:47;97356.38;;;-1.69;100.00
45731;BME280;31440;48.584;13.460;2023-03-16T06:53:57;97353.13;;;-1.58;100.00
45731;BME280;31440;48.584;13.460;2023-03-16T06:57:03;97350.66;;;-2.04;100.00
45731;BME280;31440;48.584;13.460;2023-03-16T07:00:12;97368.09;;;-1.78;100.00
45731;BME280;31440;48.584;13.460;2023-03-16T07:03:17;97361.59;;;-1.59;100.00
45731;BME280;31440;48.584;13.460;2023-03-16T07:06:28;97366.19;;;-1.90;100.00
45731;BME280;31440;48.584;13.460;2023-03-16T07:09:33;97373.44;;;-1.63;100.00
45731;BME280;31440;48.584;13.460;2023-03-16T07:12:43;97371.06;;;-1.54;100.00
45731;BME280;31440;48.584;13.460;2023-03-16T07:15:49;97370.63;;;-1.28;100.00
45731;BME280;31440;48.584;13.460;2023-03-16T07:18:56;97372.81;;;-1.51;100.00
45731;BME280;31440;48.584;13.460;2023-03-16T07:22:01;97380.81;;;-1.30;100.00
45731;BME280;31440;48.584;13.460;2023-03-16T07:25:10;97380.00;;;-1.29;100.00
45731;BME280;31440;48.584;13.460;2023-03-16T07:28:20;97382.53;;;-0.70;100.00
45731;BME280;31440;48.584;13.460;2023-03-16T07:31:25;97379.69;;;-0.91;100.00
45731;BME280;31440;48.584;13.460;2023-03-16T07:34:32;97381.50;;;-0.84;100.00
45731;BME280;31440;48.584;13.460;2023-03-16T07:37:36;97384.66;;;-1.02;100.00
45731;BME280;31440;48.584;13.460;2023-03-16T07:40:42;97380.09;;;-0.63;100.00
45731;BME280;31440;48.584;13.460;2023-03-16T07:43:54;97376.59;;;-0.69;100.00
45731;BME280;31440;48.584;13.460;2023-03-16T07:47:00;97383.81;;;-0.41;100.00
45731;BME280;31440;48.584;13.460;2023-03-16T07:50:08;97386.34;;;-0.41;100.00
45731;BME280;31440;48.584;13.460;2023-03-16T07:53:16;97390.22;;;-0.69;100.00
45731;BME280;31440;48.584;13.460;2023-03-16T07:56:26;97387.09;;;-0.49;100.00
45731;BME280;31440;48.584;13.460;2023-03-16T07:59:43;97385.03;;;-0.10;100.00
45731;BME280;31440;48.584;13.460;2023-03-16T08:02:50;97376.63;;;0.03;100.00
45731;BME280;31440;48.584;13.460;2023-03-16T08:05:57;97375.75;;;-0.00;100.00
45731;BME280;31440;48.584;13.460;2023-03-16T08:09:03;97386.00;;;0.03;100.00
45731;BME280;31440;48.584;13.460;2023-03-16T08:12:12;97376.97;;;0.35;100.00
45731;BME280;31440;48.584;13.460;2023-03-16T08:15:17;97384.94;;;0.66;100.00
45731;BME280;31440;48.584;13.460;2023-03-16T08:18:24;97376.63;;;0.96;100.00
45731;BME280;31440;48.584;13.460;2023-03-16T08:21:29;97373.44;;;1.29;100.00
45731;BME280;31440;48.584;13.460;2023-03-16T08:24:35;97381.09;;;1.21;100.00
45731;BME280;31440;48.584;13.460;2023-03-16T08:27:41;97381.22;;;1.47;100.00
45731;BME280;31440;48.584;13.460;2023-03-16T08:30:48;97371.97;;;1.81;100.00
45731;BME280;31440;48.584;13.460;2023-03-16T08:34:12;97364.28;;;5.93;100.00
45731;BME280;31440;48.584;13.460;2023-03-16T08:37:20;97377.94;;;3.98;100.00
45731;BME280;31440;48.584;13.460;2023-03-16T08:40:27;97344.59;;;3.69;100.00
45731;BME280;31440;48.584;13.460;2023-03-16T08:43:35;97379.00;;;3.23;100.00
45731;BME280;31440;48.584;13.460;2023-03-16T08:46:41;97364.47;;;2.78;100.00
45731;BME280;31440;48.584;13.460;2023-03-16T08:49:46;97373.75;;;3.66;100.00
45731;BME280;31440;48.584;13.460;2023-03-16T08:52:52;97380.63;;;3.63;100.00
45731;BME280;31440;48.584;13.460;2023-03-16T08:59:02;97366.91;;;3.71;100.00
45731;BME280;31440;48.584;13.460;2023-03-16T09:02:11;97374.16;;;4.63;100.00
45731;BME280;31440;48.584;13.460;2023-03-16T09:05:17;97374.00;;;4.81;100.00
45731;BME280;31440;48.584;13.460;2023-03-16T09:08:22;97368.97;;;4.64;100.00
45731;BME280;31440;48.584;13.460;2023-03-16T09:11:26;97374.31;;;4.41;100.00
45731;BME280;31440;48.584;13.460;2023-03-16T09:14:33;97344.84;;;4.79;100.00
45731;BME280;31440;48.584;13.460;2023-03-16T09:17:41;97366.16;;;4.97;98.99
45731;BME280;31440;48.584;13.460;2023-03-16T09:20:46;97355.97;;;4.81;98.15
45731;BME280;31440;48.584;13.460;2023-03-16T09:23:53;97357.50;;;5.02;97.16
45731;BME280;31440;48.584;13.460;2023-03-16T09:26:58;97370.50;;;4.89;90.66
45731;BME280;31440;48.584;13.460;2023-03-16T09:30:04;97354.19;;;5.75;95.97
45731;BME280;31440;48.584;13.460;2023-03-16T09:33:09;97359.13;;;5.15;83.64
45731;BME280;31440;48.584;13.460;2023-03-16T09:36:14;97355.88;;;5.77;78.05
45731;BME280;31440;48.584;13.460;2023-03-16T09:39:19;97354.31;;;5.64;85.07
45731;BME280;31440;48.584;13.460;2023-03-16T09:42:32;97352.81;;;6.15;77.32
45731;BME280;31440;48.584;13.460;2023-03-16T09:49:00;97348.72;;;6.00;77.29
45731;BME280;31440;48.584;13.460;2023-03-16T10:06:25;97305.56;;;7.64;62.97
45731;BME280;31440;48.584;13.460;2023-03-16T10:09:53;97333.41;;;7.05;62.53
45731;BME280;31440;48.584;13.460;2023-03-16T10:16:34;97334.63;;;7.32;58.97
45731;BME280;31440;48.584;13.460;2023-03-16T10:19:49;97333.28;;;8.02;55.68
45731;BME280;31440;48.584;13.460;2023-03-16T10:23:21;97334.00;;;8.07;54.62
45731;BME280;31440;48.584;13.460;2023-03-16T10:26:37;97327.19;;;8.43;54.12
45731;BME280;31440;48.584;13.460;2023-03-16T10:29:45;97322.19;;;8.74;53.79
45731;BME280;31440;48.584;13.460;2023-03-16T10:32:51;97328.84;;;9.18;52.04
45731;BME280;31440;48.584;13.460;2023-03-16T10:39:04;97324.19;;;8.97;52.11
45731;BME280;31440;48.584;13.460;2023-03-16T10:42:15;97321.72;;;9.90;52.01
45731;BME280;31440;48.584;13.460;2023-03-16T10:45:28;97319.09;;;9.28;48.95
45731;BME280;31440;48.584;13.460;2023-03-16T10:48:33;97307.53;;;10.01;47.37
45731;BME280;31440;48.584;13.460;2023-03-16T10:51:38;97303.44;;;10.22;46.26
45731;BME280;31440;48.584;13.460;2023-03-16T10:54:53;97306.03;;;10.22;46.97
45731;BME280;31440;48.584;13.460;2023-03-16T10:57:59;97303.28;;;10.28;46.24
45731;BME280;31440;48.584;13.460;2023-03-16T11:04:12;97298.31;;;10.48;41.26
45731;BME280;31440;48.584;13.460;2023-03-16T11:07:20;97296.16;;;10.35;44.31
45731;BME280;31440;48.584;13.460;2023-03-16T11:10:32;97297.53;;;10.73;42.29
45731;BME280;31440;48.584;13.460;2023-03-16T11:13:45;97278.63;;;11.20;41.60
45731;BME280;31440;48.584;13.460;2023-03-16T11:20:22;97278.41;;;11.51;39.61
45731;BME280;31440;48.584;13.460;2023-03-16T11:23:33;97268.59;;;10.29;37.80
45731;BME280;31440;48.584;13.460;2023-03-16T11:26:43;97276.25;;;10.88;38.16
45731;BME280;31440;48.584;13.460;2023-03-16T11:30:03;97269.84;;;10.72;37.52
45731;BME280;31440;48.584;13.460;2023-03-16T11:33:12;97263.38;;;11.08;36.81
45731;BME280;31440;48.584;13.460;2023-03-16T11:39:57;97251.25;;;12.27;37.98
45731;BME280;31440;48.584;13.460;2023-03-16T11:46:41;97241.66;;;12.51;38.20
45731;BME280;31440;48.584;13.460;2023-03-16T11:49:59;97249.09;;;12.37;36.74
45731;BME280;31440;48.584;13.460;2023-03-16T11:56:42;97234.25;;;11.95;37.41
45731;BME280;31440;48.584;13.460;2023-03-16T12:00:15;97225.22;;;12.25;36.81
45731;BME280;31440;48.584;13.460;2023-03-16T12:16:58;97208.84;;;13.26;34.83
45731;BME280;31440;48.584;13.460;2023-03-16T12:20:15;97206.97;;;13.30;35.61
45731;BME280;31440;48.584;13.460;2023-03-16T12:23:31;97210.22;;;13.35;36.80
45731;BME280;31440;48.584;13.460;2023-03-16T12:26:39;97190.31;;;13.90;33.33
45731;BME280;31440;48.584;13.460;2023-03-16T12:29:55;97202.00;;;14.55;31.72
45731;BME280;31440;48.584;13.460;2023-03-16T12:43:50;97172.31;;;15.41;31.88
45731;BME280;31440;48.584;13.460;2023-03-16T12:50:11;97176.06;;;14.15;31.37
45731;BME280;31440;48.584;13.460;2023-03-16T12:56:43;97167.47;;;14.66;30.57
45731;BME280;31440;48.584;13.460;2023-03-16T12:59:55;97160.72;;;14.96;29.31
45731;BME280;31440;48.584;13.460;2023-03-16T13:03:02;97155.19;;;15.35;29.96
45731;BME280;31440;48.584;13.460;2023-03-16T13:06:17;97151.81;;;14.83;29.55
45731;BME280;31440;48.584;13.460;2023-03-16T13:09:24;97150.25;;;14.79;28.49
45731;BME280;31440;48.584;13.460;2023-03-16T13:12:33;97149.41;;;13.89;28.66
45731;BME280;31440;48.584;13.460;2023-03-16T13:15:42;97148.47;;;15.30;26.40
45731;BME280;31440;48.584;13.460;2023-03-16T13:18:51;97153.63;;;14.98;29.95
45731;BME280;31440;48.584;13.460;2023-03-16T13:25:33;97156.81;;;14.35;29.74
45731;BME280;31440;48.584;13.460;2023-03-16T13:28:41;97165.09;;;15.13;28.62
45731;BME280;31440;48.584;13.460;2023-03-16T13:31:49;97161.38;;;15.17;27.96
45731;BME280;31440;48.584;13.460;2023-03-16T13:34:57;97152.88;;;14.79;26.31
45731;BME280;31440;48.584;13.460;2023-03-16T13:38:04;97149.09;;;15.84;26.61
45731;BME280;31440;48.584;13.460;2023-03-16T13:41:10;97159.28;;;14.55;25.69
45731;BME280;31440;48.584;13.460;2023-03-16T13:44:17;97146.69;;;14.97;26.62
45731;BME280;31440;48.584;13.460;2023-03-16T13:47:24;97142.50;;;15.11;26.02
45731;BME280;31440;48.584;13.460;2023-03-16T13:50:34;97141.66;;;15.10;24.63
45731;BME280;31440;48.584;13.460;2023-03-16T13:53:39;97143.91;;;15.18;25.92
45731;BME280;31440;48.584;13.460;2023-03-16T13:56:44;97136.50;;;15.57;24.73
45731;BME280;31440;48.584;13.460;2023-03-16T13:59:49;97133.22;;;16.32;26.16
45731;BME280;31440;48.584;13.460;2023-03-16T14:02:56;97114.75;;;15.88;23.43
45731;BME280;31440;48.584;13.460;2023-03-16T14:06:02;97106.16;;;15.05;25.07
45731;BME280;31440;48.584;13.460;2023-03-16T14:09:16;97125.41;;;15.04;24.31
45731;BME280;31440;48.584;13.460;2023-03-16T14:12:24;97101.53;;;16.06;25.04
45731;BME280;31440;48.584;13.460;2023-03-16T14:15:29;97114.69;;;16.65;24.17
45731;BME280;31440;48.584;13.460;2023-03-16T14:18:45;97117.75;;;17.02;25.15
45731;BME280;31440;48.584;13.460;2023-03-16T14:21:51;97108.13;;;16.13;23.64
45731;BME280;31440;48.584;13.460;2023-03-16T14:24:57;97110.03;;;16.70;22.52
45731;BME280;31440;48.584;13.460;2023-03-16T14:28:05;97101.63;;;16.04;23.02
45731;BME280;31440;48.584;13.460;2023-03-16T14:31:11;97090.28;;;17.07;24.52
45731;BME280;31440;48.584;13.460;2023-03-16T14:34:30;97089.03;;;16.70;22.09
45731;BME280;31440;48.584;13.460;2023-03-16T14:37:38;97097.34;;;15.72;23.47
45731;BME280;31440;48.584;13.460;2023-03-16T14:40:52;97094.78;;;15.86;22.61
45731;BME280;31440;48.584;13.460;2023-03-16T14:43:59;97083.94;;;15.45;23.41
45731;BME280;31440;48.584;13.460;2023-03-16T14:47:05;97080.28;;;16.26;23.00
45731;BME280;31440;48.584;13.460;2023-03-16T14:50:16;97077.09;;;15.58;21.15
45731;BME280;31440;48.584;13.460;2023-03-16T14:53:22;97071.69;;;15.77;23.08
45731;BME280;31440;48.584;13.460;2023-03-16T14:56:33;97080.13;;;15.50;22.65
45731;BME280;31440;48.584;13.460;2023-03-16T14:59:38;97080.78;;;15.71;23.27
45731;BME280;31440;48.584;13.460;2023-03-16T15:02:49;97065.91;;;15.39;22.53
45731;BME280;31440;48.584;13.460;2023-03-16T15:05:55;97069.44;;;15.71;22.79
45731;BME280;31440;48.584;13.460;2023-03-16T15:09:00;97065.97;;;15.21;22.42
45731;BME280;31440;48.584;13.460;2023-03-16T15:12:13;97078.75;;;15.12;25.68
45731;BME280;31440;48.584;13.460;2023-03-16T15:15:20;97075.44;;;14.75;23.52
45731;BME280;31440;48.584;13.460;2023-03-16T15:18:26;97075.88;;;14.83;24.54
45731;BME280;31440;48.584;13.460;2023-03-16T15:24:36;97082.75;;;14.69;24.73
45731;BME280;31440;48.584;13.460;2023-03-16T15:27:41;97078.34;;;15.02;24.13
45731;BME280;31440;48.584;13.460;2023-03-16T15:30:48;97083.50;;;14.53;22.87
45731;BME280;31440;48.584;13.460;2023-03-16T15:33:53;97075.38;;;15.25;21.75
45731;BME280;31440;48.584;13.460;2023-03-16T15:36:58;97066.09;;;14.52;23.20
45731;BME280;31440;48.584;13.460;2023-03-16T15:40:14;97071.94;;;14.06;23.10
45731;BME280;31440;48.584;13.460;2023-03-16T15:43:21;97067.88;;;14.69;24.33
45731;BME280;31440;48.584;13.460;2023-03-16T15:46:27;97060.66;;;14.22;22.20
45731;BME280;31440;48.584;13.460;2023-03-16T15:49:32;97071.31;;;13.65;23.40
45731;BME280;31440;48.584;13.460;2023-03-16T15:56:01;97068.50;;;12.53;26.54
45731;BME280;31440;48.584;13.460;2023-03-16T15:59:11;97067.16;;;11.81;25.34
45731;BME280;31440;48.584;13.460;2023-03-16T16:02:26;97069.66;;;11.62;25.04
45731;BME280;31440;48.584;13.460;2023-03-16T16:05:32;97066.53;;;11.54;24.72
45731;BME280;31440;48.584;13.460;2023-03-16T16:08:37;97062.44;;;11.25;27.02
45731;BME280;31440;48.584;13.460;2023-03-16T16:11:41;97075.00;;;10.41;27.54
45731;BME280;31440;48.584;13.460;2023-03-16T16:14:46;97080.31;;;9.85;29.11
45731;BME280;31440;48.584;13.460;2023-03-16T16:17:52;97072.72;;;9.80;29.26
45731;BME280;31440;48.584;13.460;2023-03-16T16:21:20;97058.31;;;9.13;29.25
45731;BME280;31440;48.584;13.460;2023-03-16T16:27:33;97065.31;;;8.80;31.57
45731;BME280;31440;48.584;13.460;2023-03-16T16:30:38;97050.63;;;8.19;31.41
45731;BME280;31440;48.584;13.460;2023-03-16T16:33:43;97069.16;;;8.36;31.50
45731;BME280;31440;48.584;13.460;2023-03-16T16:36:48;97057.72;;;7.75;31.36
45731;BME280;31440;48.584;13.460;2023-03-16T16:39:52;97074.56;;;7.56;31.62
45731;BME280;31440;48.584;13.460;2023-03-16T16:43:00;97068.72;;;7.48;32.20
45731;BME280;31440;48.584;13.460;2023-03-16T16:46:16;97066.72;;;7.59;33.10
45731;BME280;31440;48.584;13.460;2023-03-16T16:49:24;97055.84;;;7.08;33.58
45731;BME280;31440;48.584;13.460;2023-03-16T16:52:29;97044.75;;;7.01;33.48
45731;BME280;31440;48.584;13.460;2023-03-16T16:55:35;97058.25;;;7.14;33.23
45731;BME280;31440;48.584;13.460;2023-03-16T16:58:41;97061.91;;;6.63;33.42
45731;BME280;31440;48.584;13.460;2023-03-16T17:01:47;97062.28;;;6.88;33.25
45731;BME280;31440;48.584;13.460;2023-03-16T17:04:51;97054.13;;;6.65;35.05
45731;BME280;31440;48.584;13.460;2023-03-16T17:07:56;97049.91;;;6.13;34.92
45731;BME280;31440;48.584;13.460;2023-03-16T17:11:12;97048.13;;;6.18;34.70
45731;BME280;31440;48.584;13.460;2023-03-16T17:17:25;97049.38;;;5.94;36.34
45731;BME280;31440;48.584;13.460;2023-03-16T17:20:30;97051.63;;;5.65;36.12
45731;BME280;31440;48.584;13.460;2023-03-16T17:23:35;97052.16;;;5.84;36.23
45731;BME280;31440;48.584;13.460;2023-03-16T17:26:42;97058.84;;;5.95;35.74
45731;BME280;31440;48.584;13.460;2023-03-16T17:29:47;97069.50;;;5.76;35.76
45731;BME280;31440;48.584;13.460;2023-03-16T17:33:05;97062.75;;;5.67;36.38
45731;BME280;31440;48.584;13.460;2023-03-16T17:36:14;97073.16;;;5.61;36.56
45731;BME280;31440;48.584;13.460;2023-03-16T17:39:22;97071.09;;;5.84;36.82
45731;BME280;31440;48.584;13.460;2023-03-16T17:42:26;97075.47;;;5.79;37.20
45731;BME280;31440;48.584;13.460;2023-03-16T17:45:31;97064.44;;;5.70;36.89
45731;BME280;31440;48.584;13.460;2023-03-16T17:48:38;97049.50;;;5.35;37.07
45731;BME280;31440;48.584;13.460;2023-03-16T17:51:43;97039.28;;;5.30;36.50
45731;BME280;31440;48.584;13.460;2023-03-16T17:54:49;97058.09;;;5.35;36.49
45731;BME280;31440;48.584;13.460;2023-03-16T18:01:02;97059.03;;;5.29;36.73
45731;BME280;31440;48.584;13.460;2023-03-16T18:04:15;97065.41;;;5.03;36.79
45731;BME280;31440;48.584;13.460;2023-03-16T18:07:20;97064.84;;;4.81;37.80
45731;BME280;31440;48.584;13.460;2023-03-16T18:10:27;97067.19;;;4.99;38.13
45731;BME280;31440;48.584;13.460;2023-03-16T18:13:35;97075.69;;;5.07;36.89
45731;BME280;31440;48.584;13.460;2023-03-16T18:16:40;97072.66;;;4.75;37.54
45731;BME280;31440;48.584;13.460;2023-03-16T18:19:45;97074.47;;;4.67;37.97
45731;BME280;31440;48.584;13.460;2023-03-16T18:22:50;97079.13;;;4.36;38.86
45731;BME280;31440;48.584;13.460;2023-03-16T18:25:55;97072.31;;;4.30;40.22
45731;BME280;31440;48.584;13.460;2023-03-16T18:32:23;97073.28;;;4.18;40.69